sensor_id;sensor_type;location;lat;lon;timestamp;temperature;humidity
67093;SHT31;54011;50.772;7.730;2023-03-23T00:01:53;13.13;79.07
67093;SHT31;54011;50.772;7.730;2023-03-23T00:04:19;13.20;78.64
67093;SHT31;54011;50.772;7.730;2023-03-23T00:06:47;13.17;78.18
67093;SHT31;54011;50.772;7.730;2023-03-23T00:09:14;13.16;78.30
67093;SHT31;54011;50.772;7.730;2023-03-23T00:11:43;13.07;78.19
67093;SHT31;54011;50.772;7.730;2023-03-23T00:14:09;12.91;77.63
67093;SHT31;54011;50.772;7.730;2023-03-23T00:16:39;13.05;77.78
67093;SHT31;54011;50.772;7.730;2023-03-23T00:19:15;13.00;78.82
67093;SHT31;54011;50.772;7.730;2023-03-23T00:21:42;13.16;77.04
67093;SHT31;54011;50.772;7.730;2023-03-23T00:26:37;13.46;76.63
67093;SHT31;54011;50.772;7.730;2023-03-23T00:31:45;13.26;78.03
67093;SHT31;54011;50.772;7.730;2023-03-23T00:34:15;13.40;76.71
67093;SHT31;54011;50.772;7.730;2023-03-23T00:36:46;13.39;76.70
67093;SHT31;54011;50.772;7.730;2023-03-23T00:39:12;13.28;77.06
67093;SHT31;54011;50.772;7.730;2023-03-23T00:41:39;13.37;77.01
67093;SHT31;54011;50.772;7.730;2023-03-23T00:44:05;13.40;75.81
67093;SHT31;54011;50.772;7.730;2023-03-23T00:46:34;13.48;74.04
67093;SHT31;54011;50.772;7.730;2023-03-23T00:49:02;13.56;76.00
67093;SHT31;54011;50.772;7.730;2023-03-23T00:51:28;13.50;73.98
67093;SHT31;54011;50.772;7.730;2023-03-23T00:53:53;13.47;75.06
67093;SHT31;54011;50.772;7.730;2023-03-23T00:56:24;13.64;76.11
67093;SHT31;54011;50.772;7.730;2023-03-23T00:58:52;13.64;75.84
67093;SHT31;54011;50.772;7.730;2023-03-23T01:01:17;13.67;75.28
67093;SHT31;54011;50.772;7.730;2023-03-23T01:03:42;13.70;75.35
67093;SHT31;54011;50.772;7.730;2023-03-23T01:06:10;13.56;75.30
67093;SHT31;54011;50.772;7.730;2023-03-23T01:08:39;13.77;75.15
67093;SHT31;54011;50.772;7.730;2023-03-23T01:11:15;13.75;74.23
67093;SHT31;54011;50.772;7.730;2023-03-23T01:13:42;13.88;72.82
67093;SHT31;54011;50.772;7.730;2023-03-23T01:16:08;13.87;73.51
67093;SHT31;54011;50.772;7.730;2023-03-23T01:18:34;13.95;73.63
67093;SHT31;54011;50.772;7.730;2023-03-23T01:21:13;13.97;73.92
67093;SHT31;54011;50.772;7.730;2023-03-23T01:23:39;13.95;74.90
67093;SHT31;54011;50.772;7.730;2023-03-23T01:26:07;14.11;74.16
67093;SHT31;54011;50.772;7.730;2023-03-23T01:28:34;13.74;74.63
67093;SHT31;54011;50.772;7.730;2023-03-23T01:31:05;13.65;75.28
67093;SHT31;54011;50.772;7.730;2023-03-23T01:33:32;13.75;76.85
67093;SHT31;54011;50.772;7.730;2023-03-23T01:36:05;13.67;76.84
67093;SHT31;54011;50.772;7.730;2023-03-23T01:38:33;13.56;77.07
67093;SHT31;54011;50.772;7.730;2023-03-23T01:41:05;13.20;76.68
67093;SHT31;54011;50.772;7.730;2023-03-23T01:45:09;13.50;76.61
67093;SHT31;54011;50.772;7.730;2023-03-23T01:46:58;13.37;77.16
67093;SHT31;54011;50.772;7.730;2023-03-23T01:49:36;13.43;77.78
67093;SHT31;54011;50.772;7.730;2023-03-23T01:52:08;13.15;78.18
67093;SHT31;54011;50.772;7.730;2023-03-23T01:54:40;13.13;78.65
67093;SHT31;54011;50.772;7.730;2023-03-23T01:57:13;12.97;78.79
67093;SHT31;54011;50.772;7.730;2023-03-23T02:00:07;13.02;79.57
67093;SHT31;54011;50.772;7.730;2023-03-23T02:02:52;12.64;80.72
67093;SHT31;54011;50.772;7.730;2023-03-23T02:05:36;12.93;79.42
67093;SHT31;54011;50.772;7.730;2023-03-23T02:08:28;12.79;80.83
67093;SHT31;54011;50.772;7.730;2023-03-23T02:11:15;12.81;80.77
67093;SHT31;54011;50.772;7.730;2023-03-23T02:13:44;12.78;81.37
67093;SHT31;54011;50.772;7.730;2023-03-23T02:16:32;12.62;81.37
67093;SHT31;54011;50.772;7.730;2023-03-23T02:19:31;12.74;81.77
67093;SHT31;54011;50.772;7.730;2023-03-23T02:25:06;12.75;81.48
67093;SHT31;54011;50.772;7.730;2023-03-23T02:36:19;12.57;82.40
67093;SHT31;54011;50.772;7.730;2023-03-23T02:39:12;12.76;82.03
67093;SHT31;54011;50.772;7.730;2023-03-23T02:41:51;12.71;82.09
67093;SHT31;54011;50.772;7.730;2023-03-23T02:44:22;12.81;82.12
67093;SHT31;54011;50.772;7.730;2023-03-23T02:47:02;12.55;82.09
67093;SHT31;54011;50.772;7.730;2023-03-23T02:49:34;12.65;81.85
67093;SHT31;54011;50.772;7.730;2023-03-23T02:52:15;12.72;81.88
67093;SHT31;54011;50.772;7.730;2023-03-23T02:54:56;12.66;82.12
67093;SHT31;54011;50.772;7.730;2023-03-23T02:57:45;12.57;82.03
67093;SHT31;54011;50.772;7.730;2023-03-23T03:00:17;12.61;82.06
67093;SHT31;54011;50.772;7.730;2023-03-23T03:02:49;12.65;82.15
67093;SHT31;54011;50.772;7.730;2023-03-23T03:05:55;12.66;81.56
67093;SHT31;54011;50.772;7.730;2023-03-23T03:09:04;12.65;81.84
67093;SHT31;54011;50.772;7.730;2023-03-23T03:11:53;12.65;81.61
67093;SHT31;54011;50.772;7.730;2023-03-23T03:14:41;12.76;81.57
67093;SHT31;54011;50.772;7.730;2023-03-23T03:17:19;12.69;81.28
67093;SHT31;54011;50.772;7.730;2023-03-23T03:20:09;12.42;81.81
67093;SHT31;54011;50.772;7.730;2023-03-23T03:22:46;12.54;81.09
67093;SHT31;54011;50.772;7.730;2023-03-23T03:25:37;12.52;81.36
67093;SHT31;54011;50.772;7.730;2023-03-23T03:28:03;12.30;81.95
67093;SHT31;54011;50.772;7.730;2023-03-23T03:30:42;12.26;82.01
67093;SHT31;54011;50.772;7.730;2023-03-23T03:33:12;12.24;82.60
67093;SHT31;54011;50.772;7.730;2023-03-23T03:35:57;12.18;82.76
67093;SHT31;54011;50.772;7.730;2023-03-23T03:38:23;12.38;82.50
67093;SHT31;54011;50.772;7.730;2023-03-23T03:40:51;12.26;83.15
67093;SHT31;54011;50.772;7.730;2023-03-23T03:43:18;12.23;83.16
67093;SHT31;54011;50.772;7.730;2023-03-23T03:45:44;12.26;82.61
67093;SHT31;54011;50.772;7.730;2023-03-23T03:48:14;12.23;82.65
67093;SHT31;54011;50.772;7.730;2023-03-23T03:50:42;12.20;82.94
67093;SHT31;54011;50.772;7.730;2023-03-23T03:53:09;12.24;82.82
67093;SHT31;54011;50.772;7.730;2023-03-23T03:55:38;12.06;82.56
67093;SHT31;54011;50.772;7.730;2023-03-23T03:58:17;12.23;82.55
67093;SHT31;54011;50.772;7.730;2023-03-23T04:01:08;12.26;82.25
67093;SHT31;54011;50.772;7.730;2023-03-23T04:03:44;12.35;82.29
67093;SHT31;54011;50.772;7.730;2023-03-23T04:06:34;12.62;81.29
67093;SHT31;54011;50.772;7.730;2023-03-23T04:09:09;12.55;81.14
67093;SHT31;54011;50.772;7.730;2023-03-23T04:12:13;12.45;81.33
67093;SHT31;54011;50.772;7.730;2023-03-23T04:14:58;12.59;80.76
67093;SHT31;54011;50.772;7.730;2023-03-23T04:17:45;12.48;81.53
67093;SHT31;54011;50.772;7.730;2023-03-23T04:20:24;12.37;81.81
67093;SHT31;54011;50.772;7.730;2023-03-23T04:23:14;12.55;81.96
67093;SHT31;54011;50.772;7.730;2023-03-23T04:26:22;12.97;81.17
67093;SHT31;54011;50.772;7.730;2023-03-23T04:29:01;12.85;80.76
67093;SHT31;54011;50.772;7.730;2023-03-23T04:31:51;12.93;81.13
67093;SHT31;54011;50.772;7.730;2023-03-23T04:34:29;12.79;80.10
67093;SHT31;54011;50.772;7.730;2023-03-23T04:36:59;12.93;80.22
67093;SHT31;54011;50.772;7.730;2023-03-23T04:39:27;12.93;80.21
67093;SHT31;54011;50.772;7.730;2023-03-23T04:41:58;12.89;80.45
67093;SHT31;54011;50.772;7.730;2023-03-23T04:44:44;12.81;80.54
67093;SHT31;54011;50.772;7.730;2023-03-23T04:47:32;12.79;81.02
67093;SHT31;54011;50.772;7.730;2023-03-23T04:50:00;12.86;80.58
67093;SHT31;54011;50.772;7.730;2023-03-23T04:52:33;12.76;80.46
67093;SHT31;54011;50.772;7.730;2023-03-23T04:55:04;12.72;80.48
67093;SHT31;54011;50.772;7.730;2023-03-23T04:57:31;12.91;80.63
67093;SHT31;54011;50.772;7.730;2023-03-23T05:00:18;12.85;80.12
67093;SHT31;54011;50.772;7.730;2023-03-23T05:02:49;12.89;80.39
67093;SHT31;54011;50.772;7.730;2023-03-23T05:05:20;12.85;80.52
67093;SHT31;54011;50.772;7.730;2023-03-23T05:07:46;12.93;79.86
67093;SHT31;54011;50.772;7.730;2023-03-23T05:10:15;12.97;80.14
67093;SHT31;54011;50.772;7.730;2023-03-23T05:12:43;12.88;80.18
67093;SHT31;54011;50.772;7.730;2023-03-23T05:15:12;12.95;80.42
67093;SHT31;54011;50.772;7.730;2023-03-23T05:17:37;13.12;79.80
67093;SHT31;54011;50.772;7.730;2023-03-23T05:20:16;13.00;80.48
67093;SHT31;54011;50.772;7.730;2023-03-23T05:22:49;12.91;80.12
67093;SHT31;54011;50.772;7.730;2023-03-23T05:25:17;13.00;79.69
67093;SHT31;54011;50.772;7.730;2023-03-23T05:27:51;12.84;79.91
67093;SHT31;54011;50.772;7.730;2023-03-23T05:30:41;12.79;80.44
67093;SHT31;54011;50.772;7.730;2023-03-23T05:33:09;12.91;80.18
67093;SHT31;54011;50.772;7.730;2023-03-23T05:35:48;12.71;80.92
67093;SHT31;54011;50.772;7.730;2023-03-23T05:38:17;12.88;80.45
67093;SHT31;54011;50.772;7.730;2023-03-23T05:40:46;12.82;80.36
67093;SHT31;54011;50.772;7.730;2023-03-23T05:43:15;12.97;80.34
67093;SHT31;54011;50.772;7.730;2023-03-23T05:45:55;12.95;80.72
67093;SHT31;54011;50.772;7.730;2023-03-23T05:48:20;12.92;80.46
67093;SHT31;54011;50.772;7.730;2023-03-23T05:50:47;12.93;80.73
67093;SHT31;54011;50.772;7.730;2023-03-23T05:53:12;13.00;80.60
67093;SHT31;54011;50.772;7.730;2023-03-23T05:55:39;13.02;80.50
67093;SHT31;54011;50.772;7.730;2023-03-23T05:58:17;12.91;80.92
67093;SHT31;54011;50.772;7.730;2023-03-23T06:00:46;12.85;80.99
67093;SHT31;54011;50.772;7.730;2023-03-23T06:03:25;13.00;80.79
67093;SHT31;54011;50.772;7.730;2023-03-23T06:06:06;13.03;80.57
67093;SHT31;54011;50.772;7.730;2023-03-23T06:08:47;13.07;80.73
67093;SHT31;54011;50.772;7.730;2023-03-23T06:11:14;13.10;80.48
67093;SHT31;54011;50.772;7.730;2023-03-23T06:13:50;12.99;81.01
67093;SHT31;54011;50.772;7.730;2023-03-23T06:16:29;12.97;81.27
67093;SHT31;54011;50.772;7.730;2023-03-23T06:19:02;13.09;80.61
67093;SHT31;54011;50.772;7.730;2023-03-23T06:21:32;12.92;81.34
67093;SHT31;54011;50.772;7.730;2023-03-23T06:24:03;13.15;80.65
67093;SHT31;54011;50.772;7.730;2023-03-23T06:26:38;13.16;80.58
67093;SHT31;54011;50.772;7.730;2023-03-23T06:29:08;13.33;80.02
67093;SHT31;54011;50.772;7.730;2023-03-23T06:31:42;13.27;79.76
67093;SHT31;54011;50.772;7.730;2023-03-23T06:34:09;13.30;79.49
67093;SHT31;54011;50.772;7.730;2023-03-23T06:37:13;13.48;79.37
67093;SHT31;54011;50.772;7.730;2023-03-23T06:39:52;13.43;79.46
67093;SHT31;54011;50.772;7.730;2023-03-23T06:42:39;13.51;79.02
67093;SHT31;54011;50.772;7.730;2023-03-23T06:45:34;13.50;79.25
67093;SHT31;54011;50.772;7.730;2023-03-23T06:48:32;13.53;78.58
67093;SHT31;54011;50.772;7.730;2023-03-23T06:50:58;13.78;78.19
67093;SHT31;54011;50.772;7.730;2023-03-23T06:53:25;13.50;78.76
67093;SHT31;54011;50.772;7.730;2023-03-23T06:55:54;13.87;77.96
67093;SHT31;54011;50.772;7.730;2023-03-23T06:58:19;13.95;77.68
67093;SHT31;54011;50.772;7.730;2023-03-23T07:00:45;13.89;77.94
67093;SHT31;54011;50.772;7.730;2023-03-23T07:03:14;13.94;77.79
67093;SHT31;54011;50.772;7.730;2023-03-23T07:05:40;13.97;77.64
67093;SHT31;54011;50.772;7.730;2023-03-23T07:08:11;14.00;77.79
67093;SHT31;54011;50.772;7.730;2023-03-23T07:10:46;13.84;78.01
67093;SHT31;54011;50.772;7.730;2023-03-23T07:13:22;13.75;78.32
67093;SHT31;54011;50.772;7.730;2023-03-23T07:15:53;13.81;77.59
67093;SHT31;54011;50.772;7.730;2023-03-23T07:18:20;13.94;77.84
67093;SHT31;54011;50.772;7.730;2023-03-23T07:20:48;13.81;78.33
67093;SHT31;54011;50.772;7.730;2023-03-23T07:23:20;13.84;77.76
67093;SHT31;54011;50.772;7.730;2023-03-23T07:25:53;14.15;77.45
67093;SHT31;54011;50.772;7.730;2023-03-23T07:28:27;14.11;77.48
67093;SHT31;54011;50.772;7.730;2023-03-23T07:30:59;14.04;77.39
67093;SHT31;54011;50.772;7.730;2023-03-23T07:33:26;13.91;77.71
67093;SHT31;54011;50.772;7.730;2023-03-23T07:35:54;14.08;77.20
67093;SHT31;54011;50.772;7.730;2023-03-23T07:38:23;14.12;77.10
67093;SHT31;54011;50.772;7.730;2023-03-23T07:40:53;14.16;76.75
67093;SHT31;54011;50.772;7.730;2023-03-23T07:43:19;14.09;76.38
67093;SHT31;54011;50.772;7.730;2023-03-23T07:46:13;14.33;76.20
67093;SHT31;54011;50.772;7.730;2023-03-23T07:48:50;14.21;76.57
67093;SHT31;54011;50.772;7.730;2023-03-23T07:51:19;14.01;76.86
67093;SHT31;54011;50.772;7.730;2023-03-23T07:53:48;13.98;76.99
67093;SHT31;54011;50.772;7.730;2023-03-23T07:56:38;14.37;76.32
67093;SHT31;54011;50.772;7.730;2023-03-23T07:59:12;14.39;76.23
67093;SHT31;54011;50.772;7.730;2023-03-23T08:01:40;14.35;76.08
67093;SHT31;54011;50.772;7.730;2023-03-23T08:04:31;14.42;75.90
67093;SHT31;54011;50.772;7.730;2023-03-23T08:07:22;14.29;75.79
67093;SHT31;54011;50.772;7.730;2023-03-23T08:10:21;14.45;75.29
67093;SHT31;54011;50.772;7.730;2023-03-23T08:12:56;14.25;75.50
67093;SHT31;54011;50.772;7.730;2023-03-23T08:15:42;14.30;75.38
67093;SHT31;54011;50.772;7.730;2023-03-23T08:18:26;14.56;74.55
67093;SHT31;54011;50.772;7.730;2023-03-23T08:21:16;14.46;74.51
67093;SHT31;54011;50.772;7.730;2023-03-23T08:24:01;14.37;74.73
67093;SHT31;54011;50.772;7.730;2023-03-23T08:26:52;14.62;73.78
67093;SHT31;54011;50.772;7.730;2023-03-23T08:29:36;14.57;73.77
67093;SHT31;54011;50.772;7.730;2023-03-23T08:32:19;14.96;73.12
67093;SHT31;54011;50.772;7.730;2023-03-23T08:35:09;14.90;73.30
67093;SHT31;54011;50.772;7.730;2023-03-23T08:37:46;14.83;73.84
67093;SHT31;54011;50.772;7.730;2023-03-23T08:40:37;14.36;74.55
67093;SHT31;54011;50.772;7.730;2023-03-23T08:43:20;14.46;74.32
67093;SHT31;54011;50.772;7.730;2023-03-23T08:46:16;14.66;73.70
67093;SHT31;54011;50.772;7.730;2023-03-23T08:49:09;14.56;73.73
67093;SHT31;54011;50.772;7.730;2023-03-23T08:52:11;14.65;73.37
67093;SHT31;54011;50.772;7.730;2023-03-23T08:54:56;14.35;74.14
67093;SHT31;54011;50.772;7.730;2023-03-23T08:57:46;14.84;73.27
67093;SHT31;54011;50.772;7.730;2023-03-23T09:00:22;14.55;73.20
67093;SHT31;54011;50.772;7.730;2023-03-23T09:03:08;14.66;72.95
67093;SHT31;54011;50.772;7.730;2023-03-23T09:05:49;14.50;73.05
67093;SHT31;54011;50.772;7.730;2023-03-23T09:08:30;14.53;72.70
67093;SHT31;54011;50.772;7.730;2023-03-23T09:10:59;14.72;73.23
67093;SHT31;54011;50.772;7.730;2023-03-23T09:13:29;14.73;72.83
67093;SHT31;54011;50.772;7.730;2023-03-23T09:15:56;14.43;73.36
67093;SHT31;54011;50.772;7.730;2023-03-23T09:18:23;14.53;73.76
67093;SHT31;54011;50.772;7.730;2023-03-23T09:20:49;14.49;74.60
67093;SHT31;54011;50.772;7.730;2023-03-23T09:23:16;14.29;74.39
67093;SHT31;54011;50.772;7.730;2023-03-23T09:25:43;14.47;75.56
67093;SHT31;54011;50.772;7.730;2023-03-23T09:28:12;14.62;74.33
67093;SHT31;54011;50.772;7.730;2023-03-23T09:30:39;14.69;74.48
67093;SHT31;54011;50.772;7.730;2023-03-23T09:33:08;14.97;73.90
67093;SHT31;54011;50.772;7.730;2023-03-23T09:35:35;14.91;74.15
67093;SHT31;54011;50.772;7.730;2023-03-23T09:38:04;14.96;73.46
67093;SHT31;54011;50.772;7.730;2023-03-23T09:40:47;14.96;74.24
67093;SHT31;54011;50.772;7.730;2023-03-23T09:43:39;14.53;74.53
67093;SHT31;54011;50.772;7.730;2023-03-23T09:46:20;14.66;74.96
67093;SHT31;54011;50.772;7.730;2023-03-23T09:48:58;14.60;75.06
67093;SHT31;54011;50.772;7.730;2023-03-23T09:51:28;14.52;75.32
67093;SHT31;54011;50.772;7.730;2023-03-23T09:53:58;14.56;75.79
67093;SHT31;54011;50.772;7.730;2023-03-23T09:56:30;14.67;76.04
67093;SHT31;54011;50.772;7.730;2023-03-23T09:59:07;14.60;76.54
67093;SHT31;54011;50.772;7.730;2023-03-23T10:01:36;14.28;76.68
67093;SHT31;54011;50.772;7.730;2023-03-23T10:07:24;14.46;77.41
67093;SHT31;54011;50.772;7.730;2023-03-23T10:10:02;14.53;76.32
67093;SHT31;54011;50.772;7.730;2023-03-23T10:12:48;14.69;75.75
67093;SHT31;54011;50.772;7.730;2023-03-23T10:15:30;14.57;75.99
67093;SHT31;54011;50.772;7.730;2023-03-23T10:21:00;14.66;74.73
67093;SHT31;54011;50.772;7.730;2023-03-23T10:26:51;14.80;74.50
67093;SHT31;54011;50.772;7.730;2023-03-23T10:29:25;15.03;73.88
67093;SHT31;54011;50.772;7.730;2023-03-23T10:32:00;14.76;72.42
67093;SHT31;54011;50.772;7.730;2023-03-23T10:34:53;14.66;72.26
67093;SHT31;54011;50.772;7.730;2023-03-23T10:37:31;14.96;71.84
67093;SHT31;54011;50.772;7.730;2023-03-23T10:40:02;14.97;70.85
67093;SHT31;54011;50.772;7.730;2023-03-23T10:42:34;15.14;71.25
67093;SHT31;54011;50.772;7.730;2023-03-23T10:45:18;15.21;69.87
67093;SHT31;54011;50.772;7.730;2023-03-23T10:47:56;15.27;69.19
67093;SHT31;54011;50.772;7.730;2023-03-23T10:50:28;15.31;69.67
67093;SHT31;54011;50.772;7.730;2023-03-23T10:52:58;15.14;69.98
67093;SHT31;54011;50.772;7.730;2023-03-23T10:55:34;14.97;69.17
67093;SHT31;54011;50.772;7.730;2023-03-23T11:00:50;15.04;70.68
67093;SHT31;54011;50.772;7.730;2023-03-23T11:03:41;14.90;71.27
67093;SHT31;54011;50.772;7.730;2023-03-23T11:06:17;14.80;70.57
67093;SHT31;54011;50.772;7.730;2023-03-23T11:09:08;14.94;70.37
67093;SHT31;54011;50.772;7.730;2023-03-23T11:11:43;14.91;70.27
67093;SHT31;54011;50.772;7.730;2023-03-23T11:14:17;14.93;70.55
67093;SHT31;54011;50.772;7.730;2023-03-23T11:16:57;14.83;71.01
67093;SHT31;54011;50.772;7.730;2023-03-23T11:19:35;15.28;70.65
67093;SHT31;54011;50.772;7.730;2023-03-23T11:24:36;15.51;70.52
67093;SHT31;54011;50.772;7.730;2023-03-23T11:27:07;15.54;69.83
67093;SHT31;54011;50.772;7.730;2023-03-23T11:29:35;15.82;69.40
67093;SHT31;54011;50.772;7.730;2023-03-23T11:32:05;15.63;69.18
67093;SHT31;54011;50.772;7.730;2023-03-23T11:34:35;15.54;69.87
67093;SHT31;54011;50.772;7.730;2023-03-23T11:40:24;15.75;69.42
67093;SHT31;54011;50.772;7.730;2023-03-23T11:51:01;16.03;68.40
67093;SHT31;54011;50.772;7.730;2023-03-23T11:53:50;15.86;68.61
67093;SHT31;54011;50.772;7.730;2023-03-23T11:58:50;15.85;68.04
67093;SHT31;54011;50.772;7.730;2023-03-23T12:01:38;16.18;67.31
67093;SHT31;54011;50.772;7.730;2023-03-23T12:04:53;16.60;66.94
67093;SHT31;54011;50.772;7.730;2023-03-23T12:13:49;16.85;65.42
67093;SHT31;54011;50.772;7.730;2023-03-23T12:18:31;18.53;60.36
67093;SHT31;54011;50.772;7.730;2023-03-23T12:24:26;19.15;59.33
67093;SHT31;54011;50.772;7.730;2023-03-23T12:27:01;19.50;58.62
67093;SHT31;54011;50.772;7.730;2023-03-23T12:32:19;18.19;59.24
67093;SHT31;54011;50.772;7.730;2023-03-23T12:35:28;17.60;63.07
67093;SHT31;54011;50.772;7.730;2023-03-23T12:41:11;17.75;61.00
67093;SHT31;54011;50.772;7.730;2023-03-23T12:43:57;17.80;60.93
67093;SHT31;54011;50.772;7.730;2023-03-23T12:46:40;17.70;61.80
67093;SHT31;54011;50.772;7.730;2023-03-23T12:49:20;17.84;63.18
67093;SHT31;54011;50.772;7.730;2023-03-23T12:54:35;17.11;62.11
67093;SHT31;54011;50.772;7.730;2023-03-23T13:00:03;17.42;61.69
67093;SHT31;54011;50.772;7.730;2023-03-23T13:02:43;17.43;61.53
67093;SHT31;54011;50.772;7.730;2023-03-23T13:08:00;18.14;60.56
67093;SHT31;54011;50.772;7.730;2023-03-23T13:10:32;18.12;59.98
67093;SHT31;54011;50.772;7.730;2023-03-23T13:12:58;18.00;60.75
67093;SHT31;54011;50.772;7.730;2023-03-23T13:15:32;17.85;60.76
67093;SHT31;54011;50.772;7.730;2023-03-23T13:18:19;17.69;60.17
67093;SHT31;54011;50.772;7.730;2023-03-23T13:21:06;17.81;60.61
67093;SHT31;54011;50.772;7.730;2023-03-23T13:23:57;17.32;61.35
67093;SHT31;54011;50.772;7.730;2023-03-23T13:26:24;17.39;61.80
67093;SHT31;54011;50.772;7.730;2023-03-23T13:29:13;17.40;61.11
67093;SHT31;54011;50.772;7.730;2023-03-23T13:31:40;17.08;61.29
67093;SHT31;54011;50.772;7.730;2023-03-23T13:34:15;17.09;61.44
67093;SHT31;54011;50.772;7.730;2023-03-23T13:36:43;17.49;60.78
67093;SHT31;54011;50.772;7.730;2023-03-23T13:39:28;17.25;61.44
67093;SHT31;54011;50.772;7.730;2023-03-23T13:49:59;17.02;61.64
67093;SHT31;54011;50.772;7.730;2023-03-23T13:57:55;17.15;60.47
67093;SHT31;54011;50.772;7.730;2023-03-23T14:00:47;17.19;61.00
67093;SHT31;54011;50.772;7.730;2023-03-23T14:03:35;17.29;60.70
67093;SHT31;54011;50.772;7.730;2023-03-23T14:06:14;17.62;60.10
67093;SHT31;54011;50.772;7.730;2023-03-23T14:09:05;17.56;59.80
67093;SHT31;54011;50.772;7.730;2023-03-23T14:11:32;17.56;59.08
67093;SHT31;54011;50.772;7.730;2023-03-23T14:14:12;17.54;60.04
67093;SHT31;54011;50.772;7.730;2023-03-23T14:16:51;17.43;59.51
67093;SHT31;54011;50.772;7.730;2023-03-23T14:19:23;17.63;58.85
67093;SHT31;54011;50.772;7.730;2023-03-23T14:21:53;17.71;60.14
67093;SHT31;54011;50.772;7.730;2023-03-23T14:24:31;17.22;60.42
67093;SHT31;54011;50.772;7.730;2023-03-23T14:27:12;17.20;60.60
67093;SHT31;54011;50.772;7.730;2023-03-23T14:29:39;17.09;60.99
67093;SHT31;54011;50.772;7.730;2023-03-23T14:32:17;17.11;60.98
67093;SHT31;54011;50.772;7.730;2023-03-23T14:34:47;16.84;60.98
67093;SHT31;54011;50.772;7.730;2023-03-23T14:37:14;16.96;60.91
67093;SHT31;54011;50.772;7.730;2023-03-23T14:39:45;16.99;60.97
67093;SHT31;54011;50.772;7.730;2023-03-23T14:42:13;16.84;61.36
67093;SHT31;54011;50.772;7.730;2023-03-23T14:44:42;17.11;60.52
67093;SHT31;54011;50.772;7.730;2023-03-23T14:47:19;17.51;59.63
67093;SHT31;54011;50.772;7.730;2023-03-23T14:49:46;17.66;59.30
67093;SHT31;54011;50.772;7.730;2023-03-23T14:52:17;17.62;59.75
67093;SHT31;54011;50.772;7.730;2023-03-23T14:54:44;17.85;59.77
67093;SHT31;54011;50.772;7.730;2023-03-23T14:57:17;17.62;60.15
67093;SHT31;54011;50.772;7.730;2023-03-23T14:59:45;17.69;60.05
67093;SHT31;54011;50.772;7.730;2023-03-23T15:04:58;17.78;60.08
67093;SHT31;54011;50.772;7.730;2023-03-23T15:07:33;17.54;60.34
67093;SHT31;54011;50.772;7.730;2023-03-23T15:10:16;17.59;60.35
67093;SHT31;54011;50.772;7.730;2023-03-23T15:12:45;17.67;60.00
67093;SHT31;54011;50.772;7.730;2023-03-23T15:15:25;17.39;60.48
67093;SHT31;54011;50.772;7.730;2023-03-23T15:17:51;17.56;60.36
67093;SHT31;54011;50.772;7.730;2023-03-23T15:20:53;17.30;61.11
67093;SHT31;54011;50.772;7.730;2023-03-23T15:23:16;17.60;60.68
67093;SHT31;54011;50.772;7.730;2023-03-23T15:25:49;17.81;60.26
67093;SHT31;54011;50.772;7.730;2023-03-23T15:28:18;18.08;59.79
67093;SHT31;54011;50.772;7.730;2023-03-23T15:30:48;18.56;58.24
67093;SHT31;54011;50.772;7.730;2023-03-23T15:33:15;18.67;57.77
67093;SHT31;54011;50.772;7.730;2023-03-23T15:35:49;17.88;60.18
67093;SHT31;54011;50.772;7.730;2023-03-23T15:38:30;17.47;61.27
67093;SHT31;54011;50.772;7.730;2023-03-23T15:41:00;17.35;61.55
67093;SHT31;54011;50.772;7.730;2023-03-23T15:43:30;17.26;62.26
67093;SHT31;54011;50.772;7.730;2023-03-23T15:46:20;17.15;62.89
67093;SHT31;54011;50.772;7.730;2023-03-23T15:51:21;16.98;63.67
67093;SHT31;54011;50.772;7.730;2023-03-23T15:53:50;17.37;62.49
67093;SHT31;54011;50.772;7.730;2023-03-23T15:56:16;17.23;62.87
67093;SHT31;54011;50.772;7.730;2023-03-23T15:58:42;17.23;63.17
67093;SHT31;54011;50.772;7.730;2023-03-23T16:01:12;16.98;63.81
67093;SHT31;54011;50.772;7.730;2023-03-23T16:03:54;16.61;63.91
67093;SHT31;54011;50.772;7.730;2023-03-23T16:06:23;16.71;63.80
67093;SHT31;54011;50.772;7.730;2023-03-23T16:08:50;16.92;63.93
67093;SHT31;54011;50.772;7.730;2023-03-23T16:11:17;17.22;62.98
67093;SHT31;54011;50.772;7.730;2023-03-23T16:13:43;16.92;63.09
67093;SHT31;54011;50.772;7.730;2023-03-23T16:16:16;17.15;63.01
67093;SHT31;54011;50.772;7.730;2023-03-23T16:18:43;17.54;62.26
67093;SHT31;54011;50.772;7.730;2023-03-23T16:21:09;17.50;61.70
67093;SHT31;54011;50.772;7.730;2023-03-23T16:23:39;17.57;61.47
67093;SHT31;54011;50.772;7.730;2023-03-23T16:26:11;17.66;61.50
67093;SHT31;54011;50.772;7.730;2023-03-23T16:28:37;17.70;61.93
67093;SHT31;54011;50.772;7.730;2023-03-23T16:31:04;17.69;61.21
67093;SHT31;54011;50.772;7.730;2023-03-23T16:33:30;17.59;61.44
67093;SHT31;54011;50.772;7.730;2023-03-23T16:35:55;17.29;61.95
67093;SHT31;54011;50.772;7.730;2023-03-23T16:38:22;17.43;61.87
67093;SHT31;54011;50.772;7.730;2023-03-23T16:40:48;16.96;63.11
67093;SHT31;54011;50.772;7.730;2023-03-23T16:43:14;16.89;62.60
67093;SHT31;54011;50.772;7.730;2023-03-23T16:45:43;17.01;62.47
67093;SHT31;54011;50.772;7.730;2023-03-23T16:48:11;17.05;62.49
67093;SHT31;54011;50.772;7.730;2023-03-23T16:50:37;16.81;62.06
67093;SHT31;54011;50.772;7.730;2023-03-23T16:53:05;16.67;62.58
67093;SHT31;54011;50.772;7.730;2023-03-23T16:55:31;16.72;62.08
67093;SHT31;54011;50.772;7.730;2023-03-23T16:57:56;16.67;62.01
67093;SHT31;54011;50.772;7.730;2023-03-23T17:00:24;16.91;61.24
67093;SHT31;54011;50.772;7.730;2023-03-23T17:02:52;16.85;61.66
67093;SHT31;54011;50.772;7.730;2023-03-23T17:05:22;16.75;61.70
67093;SHT31;54011;50.772;7.730;2023-03-23T17:07:48;16.61;62.46
67093;SHT31;54011;50.772;7.730;2023-03-23T17:10:20;16.40;63.08
67093;SHT31;54011;50.772;7.730;2023-03-23T17:12:48;16.41;62.95
67093;SHT31;54011;50.772;7.730;2023-03-23T17:15:13;16.34;63.04
67093;SHT31;54011;50.772;7.730;2023-03-23T17:17:39;16.35;63.54
67093;SHT31;54011;50.772;7.730;2023-03-23T17:20:09;16.33;63.67
67093;SHT31;54011;50.772;7.730;2023-03-23T17:22:36;16.33;63.83
67093;SHT31;54011;50.772;7.730;2023-03-23T17:25:02;16.03;64.02
67093;SHT31;54011;50.772;7.730;2023-03-23T17:27:28;15.90;64.61
67093;SHT31;54011;50.772;7.730;2023-03-23T17:29:54;16.14;64.44
67093;SHT31;54011;50.772;7.730;2023-03-23T17:32:22;15.95;64.64
67093;SHT31;54011;50.772;7.730;2023-03-23T17:34:50;15.72;64.97
67093;SHT31;54011;50.772;7.730;2023-03-23T17:37:16;15.58;65.62
67093;SHT31;54011;50.772;7.730;2023-03-23T17:39:41;15.65;65.67
67093;SHT31;54011;50.772;7.730;2023-03-23T17:42:07;15.56;65.37
67093;SHT31;54011;50.772;7.730;2023-03-23T17:44:33;15.70;65.39
67093;SHT31;54011;50.772;7.730;2023-03-23T17:47:02;15.46;65.95
67093;SHT31;54011;50.772;7.730;2023-03-23T17:49:27;15.41;65.79